createdAt,value
2022-11-26T00:00:34.074Z,4.93
2022-11-26T00:03:01.448Z,5.60
2022-11-26T00:05:31.363Z,5.60
2022-11-26T00:08:00.400Z,5.38
2022-11-26T00:10:29.479Z,4.55
2022-11-26T00:12:57.965Z,5.20
2022-11-26T00:15:26.267Z,5.10
2022-11-26T00:17:53.995Z,4.80
2022-11-26T00:20:23.183Z,4.70
2022-11-26T00:22:52.296Z,5.15
2022-11-26T00:25:21.113Z,5.47
2022-11-26T00:27:49.426Z,5.00
2022-11-26T00:30:21.461Z,4.88
2022-11-26T00:32:49.292Z,5.00
2022-11-26T00:35:17.503Z,4.75
2022-11-26T00:37:52.814Z,4.75
2022-11-26T00:40:21.718Z,5.20
2022-11-26T00:42:48.988Z,6.43
2022-11-26T00:45:21.228Z,5.25
2022-11-26T00:47:48.814Z,5.03
2022-11-26T00:50:17.309Z,5.13
2022-11-26T00:52:45.035Z,4.93
2022-11-26T00:55:23.059Z,5.80
2022-11-26T00:57:50.495Z,5.18
2022-11-26T01:00:19.203Z,6.43
2022-11-26T01:02:46.712Z,5.60
2022-11-26T01:05:14.193Z,5.65
2022-11-26T01:07:42.029Z,5.57
2022-11-26T01:10:17.465Z,4.70
2022-11-26T01:12:44.947Z,5.32
2022-11-26T01:15:12.779Z,5.32
2022-11-26T01:17:40.244Z,5.03
2022-11-26T01:20:25.613Z,5.55
2022-11-26T01:22:53.718Z,6.22
2022-11-26T01:25:21.413Z,5.50
2022-11-26T01:27:48.759Z,5.47
2022-11-26T01:30:30.757Z,5.53
2022-11-26T01:32:59.670Z,6.72
2022-11-26T01:35:27.407Z,5.68
2022-11-26T01:37:55.191Z,5.10
2022-11-26T01:40:41.665Z,5.22
2022-11-26T01:43:12.231Z,5.43
2022-11-26T01:45:39.550Z,5.03
2022-11-26T01:48:22.092Z,5.80
2022-11-26T01:50:54.065Z,5.82
2022-11-26T01:53:29.147Z,5.68
2022-11-26T01:56:01.257Z,4.88
2022-11-26T01:58:38.324Z,5.20
2022-11-26T02:01:07.397Z,4.78
2022-11-26T02:03:39.250Z,5.50
2022-11-26T02:06:09.479Z,6.82
2022-11-26T02:08:37.277Z,5.63
2022-11-26T02:11:19.200Z,5.30
2022-11-26T02:13:47.679Z,5.85
2022-11-26T02:16:22.973Z,5.03
2022-11-26T02:18:58.703Z,4.97
2022-11-26T02:21:27.748Z,5.20
2022-11-26T02:24:30.436Z,4.45
2022-11-26T02:27:29.916Z,5.50
2022-11-26T02:30:03.161Z,5.28
2022-11-26T02:32:35.240Z,4.97
2022-11-26T02:35:05.393Z,5.72
2022-11-26T02:37:36.635Z,4.35
2022-11-26T02:40:04.575Z,4.35
2022-11-26T02:42:33.738Z,4.78
2022-11-26T02:45:08.813Z,4.57
2022-11-26T02:47:37.739Z,4.28
2022-11-26T02:50:08.096Z,5.10
2022-11-26T02:52:36.117Z,5.20
2022-11-26T02:55:04.570Z,5.00
2022-11-26T02:57:33.397Z,5.30
2022-11-26T03:00:00.871Z,4.35
2022-11-26T03:02:32.609Z,4.78
2022-11-26T03:05:01.502Z,4.63
2022-11-26T03:07:33.177Z,4.97
2022-11-26T03:10:01.803Z,4.50
2022-11-26T03:12:29.909Z,4.78
2022-11-26T03:14:57.334Z,6.00
2022-11-26T03:17:24.714Z,5.03
2022-11-26T03:19:52.197Z,4.75
2022-11-26T03:22:19.521Z,5.10
2022-11-26T03:24:47.000Z,5.03
2022-11-26T03:27:14.297Z,4.70
2022-11-26T03:29:41.603Z,5.00
2022-11-26T03:32:09.127Z,4.55
2022-11-26T03:34:37.069Z,5.10
2022-11-26T03:37:04.656Z,5.00
2022-11-26T03:39:32.046Z,5.20
2022-11-26T03:41:59.367Z,5.28
2022-11-26T03:44:26.729Z,4.93
2022-11-26T03:46:54.094Z,4.95
2022-11-26T03:49:21.533Z,5.57
2022-11-26T03:51:48.799Z,5.40
2022-11-26T03:54:16.140Z,5.88
2022-11-26T03:56:43.515Z,5.75
2022-11-26T03:59:10.891Z,5.70
2022-11-26T04:01:39.084Z,7.35
2022-11-26T04:04:06.474Z,5.22
2022-11-26T04:06:33.682Z,5.40
2022-11-26T04:09:01.019Z,5.68
2022-11-26T04:11:28.388Z,6.00
2022-11-26T04:13:55.642Z,6.07
2022-11-26T04:16:22.864Z,6.57
2022-11-26T04:18:50.285Z,6.22
2022-11-26T04:21:17.470Z,6.80
2022-11-26T04:23:44.911Z,5.88
2022-11-26T04:26:12.251Z,6.20
2022-11-26T04:28:39.550Z,6.35
2022-11-26T04:31:06.845Z,6.60
2022-11-26T04:33:34.303Z,6.15
2022-11-26T04:36:01.634Z,6.68
2022-11-26T04:38:28.920Z,6.65
2022-11-26T04:40:56.326Z,6.72
2022-11-26T04:43:23.596Z,5.95
2022-11-26T04:45:50.879Z,6.90
2022-11-26T04:48:18.437Z,6.30
2022-11-26T04:50:45.698Z,8.13
2022-11-26T04:53:13.046Z,6.90
2022-11-26T04:55:40.375Z,7.82
2022-11-26T04:58:07.690Z,6.85
2022-11-26T05:00:35.078Z,6.50
2022-11-26T05:03:02.605Z,6.75
2022-11-26T05:05:29.888Z,7.38
2022-11-26T05:07:57.220Z,7.13
2022-11-26T05:10:24.615Z,6.25
2022-11-26T05:12:51.907Z,6.70
2022-11-26T05:15:19.186Z,7.50
2022-11-26T05:17:46.655Z,7.75
2022-11-26T05:20:15.082Z,5.88
2022-11-26T05:22:43.019Z,6.47
2022-11-26T05:25:10.757Z,6.15
2022-11-26T05:27:38.064Z,6.63
2022-11-26T05:30:05.710Z,6.90
2022-11-26T05:32:33.143Z,7.00
2022-11-26T05:35:00.616Z,6.25
2022-11-26T05:37:28.012Z,7.57
2022-11-26T05:39:55.331Z,6.43
2022-11-26T05:42:22.770Z,7.13
2022-11-26T05:44:50.042Z,6.55
2022-11-26T05:47:17.632Z,6.05
2022-11-26T05:49:44.859Z,6.13
2022-11-26T05:52:12.234Z,7.47
2022-11-26T05:54:40.017Z,6.25
2022-11-26T05:57:07.509Z,6.10
2022-11-26T05:59:34.917Z,7.43
2022-11-26T06:02:02.324Z,6.80
2022-11-26T06:04:29.700Z,6.35
2022-11-26T06:06:57.224Z,6.38
2022-11-26T06:09:24.666Z,6.60
2022-11-26T06:11:52.183Z,6.55
2022-11-26T06:14:19.438Z,7.68
2022-11-26T06:16:46.953Z,6.72
2022-11-26T06:19:14.282Z,6.25
2022-11-26T06:21:41.610Z,6.22
2022-11-26T06:24:09.116Z,6.80
2022-11-26T06:26:36.627Z,6.25
2022-11-26T06:29:04.509Z,6.45
2022-11-26T06:31:33.112Z,5.97
2022-11-26T06:34:00.591Z,7.05
2022-11-26T06:36:28.001Z,6.30
2022-11-26T06:38:55.398Z,5.95
2022-11-26T06:41:22.730Z,6.57
2022-11-26T06:43:49.998Z,6.15
2022-11-26T06:46:17.530Z,6.18
2022-11-26T06:48:44.762Z,5.43
2022-11-26T06:51:13.563Z,5.85
2022-11-26T06:53:41.523Z,5.50
2022-11-26T06:56:16.398Z,6.00
2022-11-26T06:58:46.719Z,6.20
2022-11-26T07:01:15.882Z,5.40
2022-11-26T07:03:43.419Z,5.00
2022-11-26T07:06:18.004Z,5.88
2022-11-26T07:08:45.813Z,5.15
2022-11-26T07:11:13.156Z,5.75
2022-11-26T07:13:40.594Z,5.57
2022-11-26T07:16:08.439Z,5.97
2022-11-26T07:18:35.861Z,5.55
2022-11-26T07:21:07.367Z,5.47
2022-11-26T07:23:34.708Z,5.47
2022-11-26T07:26:03.080Z,5.70
2022-11-26T07:28:30.970Z,5.70
2022-11-26T07:31:17.768Z,5.68
2022-11-26T07:33:45.718Z,5.95
2022-11-26T07:36:20.573Z,6.25
2022-11-26T07:38:47.962Z,5.10
2022-11-26T07:41:16.533Z,4.93
2022-11-26T07:43:44.305Z,5.13
2022-11-26T07:46:13.801Z,5.97
2022-11-26T07:48:41.430Z,6.28
2022-11-26T07:51:16.012Z,5.32
2022-11-26T07:53:43.349Z,4.53
2022-11-26T07:56:10.607Z,5.32
2022-11-26T07:58:37.968Z,4.75
2022-11-26T08:01:09.230Z,4.57
2022-11-26T08:03:40.576Z,5.57
2022-11-26T08:06:08.977Z,5.05
2022-11-26T08:08:36.666Z,5.30
2022-11-26T08:11:05.150Z,5.40
2022-11-26T08:13:32.536Z,5.47
2022-11-26T08:15:59.908Z,4.72
2022-11-26T08:18:27.223Z,4.00
2022-11-26T08:20:57.915Z,5.28
2022-11-26T08:23:26.233Z,5.55
2022-11-26T08:26:20.462Z,6.70
2022-11-26T08:28:42.520Z,5.10
2022-11-26T08:31:11.391Z,5.57
2022-11-26T08:33:39.183Z,6.22
2022-11-26T08:36:08.611Z,4.80
2022-11-26T08:38:36.315Z,5.35
2022-11-26T08:41:05.383Z,5.03
2022-11-26T08:43:51.716Z,4.90
2022-11-26T08:46:22.073Z,5.60
2022-11-26T08:48:49.473Z,5.45
2022-11-26T08:51:17.469Z,5.32
2022-11-26T08:53:46.182Z,5.25
2022-11-26T08:56:14.127Z,5.05
2022-11-26T08:58:42.788Z,5.20
2022-11-26T09:01:11.514Z,4.75
2022-11-26T09:03:39.364Z,4.85
2022-11-26T09:06:08.127Z,5.13
2022-11-26T09:08:56.296Z,5.22
2022-11-26T09:11:23.981Z,4.90
2022-11-26T09:13:54.409Z,5.00
2022-11-26T09:16:22.848Z,5.75
2022-11-26T09:18:50.929Z,4.80
2022-11-26T09:21:18.830Z,4.30
2022-11-26T09:23:49.061Z,5.10
2022-11-26T09:26:16.954Z,5.35
2022-11-26T09:28:44.171Z,5.13
2022-11-26T09:31:11.553Z,5.10
2022-11-26T09:33:39.042Z,4.93
2022-11-26T09:36:07.281Z,5.28
2022-11-26T09:38:35.115Z,5.00
2022-11-26T09:41:35.022Z,5.20
2022-11-26T09:44:07.887Z,5.22
2022-11-26T09:47:10.967Z,5.18
2022-11-26T09:49:40.299Z,5.45
2022-11-26T09:52:08.841Z,5.38
2022-11-26T09:54:39.530Z,4.88
2022-11-26T09:57:25.755Z,5.30
2022-11-26T09:59:54.754Z,6.90
2022-11-26T10:02:22.140Z,4.53
2022-11-26T10:04:49.601Z,5.85
2022-11-26T10:07:20.044Z,5.45
2022-11-26T10:09:48.355Z,5.00
2022-11-26T10:12:26.013Z,5.28
2022-11-26T10:15:00.722Z,5.07
2022-11-26T10:17:43.356Z,5.18
2022-11-26T10:20:29.528Z,5.00
2022-11-26T10:23:04.685Z,4.90
2022-11-26T10:25:35.306Z,5.20
2022-11-26T10:28:03.793Z,5.35
2022-11-26T10:30:31.942Z,4.65
2022-11-26T10:33:00.895Z,4.72
2022-11-26T10:35:29.176Z,4.50
2022-11-26T10:37:59.618Z,4.43
2022-11-26T10:40:28.280Z,4.30
2022-11-26T10:43:10.596Z,5.07
2022-11-26T10:45:49.776Z,4.72
2022-11-26T10:48:20.177Z,4.47
2022-11-26T10:50:56.552Z,4.72
2022-11-26T10:53:25.296Z,4.68
2022-11-26T10:55:53.311Z,5.35
2022-11-26T10:58:22.874Z,3.95
2022-11-26T11:00:50.468Z,4.38
2022-11-26T11:03:44.914Z,4.72
2022-11-26T11:06:14.429Z,4.32
2022-11-26T11:08:41.762Z,4.55
2022-11-26T11:11:18.730Z,5.88
2022-11-26T11:13:47.485Z,4.85
2022-11-26T11:16:23.632Z,4.47
2022-11-26T11:18:52.840Z,4.78
2022-11-26T11:21:21.625Z,4.68
2022-11-26T11:26:44.065Z,6.20
2022-11-26T11:29:29.856Z,5.20
2022-11-26T11:31:57.862Z,5.03
2022-11-26T11:34:31.359Z,5.85
2022-11-26T11:37:00.092Z,4.85
2022-11-26T11:39:29.150Z,5.32
2022-11-26T11:41:56.952Z,5.32
2022-11-26T11:44:24.180Z,5.47
2022-11-26T11:46:51.579Z,5.75
2022-11-26T11:49:37.729Z,4.43
2022-11-26T11:52:13.386Z,5.32
2022-11-26T11:54:57.011Z,5.43
2022-11-26T11:57:44.633Z,5.20
2022-11-26T12:00:17.694Z,5.55
2022-11-26T12:02:45.839Z,4.63
2022-11-26T12:05:31.822Z,4.72
2022-11-26T12:08:11.279Z,5.43
2022-11-26T12:10:38.720Z,4.63
2022-11-26T12:13:07.808Z,5.35
2022-11-26T12:15:35.180Z,4.20
2022-11-26T12:18:06.671Z,4.72
2022-11-26T12:20:36.801Z,4.82
2022-11-26T12:23:12.989Z,4.80
2022-11-26T12:25:41.783Z,4.97
2022-11-26T12:28:16.543Z,4.90
2022-11-26T12:33:13.777Z,4.63
2022-11-26T12:35:44.537Z,5.00
2022-11-26T12:38:32.310Z,4.35
2022-11-26T12:41:02.547Z,4.60
2022-11-26T12:43:48.315Z,6.07
2022-11-26T12:46:27.710Z,4.85
2022-11-26T12:48:55.531Z,4.75
2022-11-26T12:51:22.977Z,4.57
2022-11-26T12:53:50.274Z,4.93
2022-11-26T12:56:26.990Z,4.75
2022-11-26T12:58:54.458Z,4.78
2022-11-26T13:01:24.201Z,4.93
2022-11-26T13:04:08.373Z,4.65
2022-11-26T13:06:41.999Z,4.93
2022-11-26T13:09:09.358Z,4.63
2022-11-26T13:11:39.497Z,4.70
2022-11-26T13:14:16.013Z,4.90
2022-11-26T13:16:58.977Z,5.00
2022-11-26T13:19:41.997Z,4.75
2022-11-26T13:22:12.263Z,4.57
2022-11-26T13:24:44.886Z,5.68
2022-11-26T13:27:18.139Z,5.53
2022-11-26T13:29:54.631Z,5.45
2022-11-26T13:32:47.776Z,5.43
2022-11-26T13:35:15.124Z,5.05
2022-11-26T13:37:57.107Z,4.45
2022-11-26T13:40:52.523Z,4.93
2022-11-26T13:43:40.631Z,5.07
2022-11-26T13:46:10.697Z,5.18
2022-11-26T13:48:45.270Z,5.35
2022-11-26T13:51:12.522Z,4.88
2022-11-26T13:53:46.664Z,5.85
2022-11-26T13:56:16.236Z,6.97
2022-11-26T13:58:57.920Z,4.97
2022-11-26T14:01:36.999Z,5.45
2022-11-26T14:04:07.826Z,5.13
2022-11-26T14:06:35.970Z,5.72
2022-11-26T14:09:05.027Z,4.97
2022-11-26T14:11:41.601Z,5.50
2022-11-26T14:14:27.086Z,5.25
2022-11-26T14:17:03.487Z,4.18
2022-11-26T14:19:43.017Z,5.10
2022-11-26T14:22:22.731Z,5.03
2022-11-26T14:24:50.418Z,5.20
2022-11-26T14:27:25.323Z,4.72
2022-11-26T14:30:07.881Z,5.57
2022-11-26T14:32:45.575Z,4.28
2022-11-26T14:35:36.147Z,4.80
2022-11-26T14:38:04.752Z,4.75
2022-11-26T14:40:39.083Z,4.65
2022-11-26T14:43:16.199Z,4.45
2022-11-26T14:45:47.920Z,5.22
2022-11-26T14:48:19.546Z,4.38
2022-11-26T14:50:46.932Z,9.25
2022-11-26T14:53:14.242Z,6.65
2022-11-26T14:55:44.770Z,4.53
2022-11-26T14:58:33.668Z,4.45
2022-11-26T15:01:05.888Z,5.22
2022-11-26T15:03:34.084Z,4.45
2022-11-26T15:06:01.427Z,4.97
2022-11-26T15:08:28.993Z,4.10
2022-11-26T15:11:07.293Z,5.15
2022-11-26T15:13:38.066Z,4.03
2022-11-26T15:16:25.094Z,5.75
2022-11-26T15:18:53.568Z,4.55
2022-11-26T15:21:23.554Z,4.43
2022-11-26T15:23:51.233Z,5.22
2022-11-26T15:26:19.265Z,4.43
2022-11-26T15:28:46.817Z,5.22
2022-11-26T15:31:14.172Z,4.57
2022-11-26T15:33:41.997Z,4.85
2022-11-26T15:36:15.920Z,4.22
2022-11-26T15:39:03.058Z,6.07
2022-11-26T15:41:30.795Z,5.32
2022-11-26T15:43:59.000Z,4.93
2022-11-26T15:46:34.007Z,5.00
2022-11-26T15:49:03.826Z,4.65
2022-11-26T15:51:35.830Z,5.15
2022-11-26T15:54:04.873Z,8.68
2022-11-26T15:56:34.425Z,8.75
2022-11-26T15:59:03.826Z,4.82
2022-11-26T16:01:32.709Z,21.33
2022-11-26T16:04:04.554Z,6.03
2022-11-26T16:06:33.819Z,6.10
2022-11-26T16:09:03.017Z,5.10
2022-11-26T16:11:31.900Z,6.50
2022-11-26T16:13:59.339Z,6.82
2022-11-26T16:16:27.073Z,5.03
2022-11-26T16:18:59.313Z,5.28
2022-11-26T16:21:28.592Z,5.35
2022-11-26T16:24:01.156Z,4.70
2022-11-26T16:26:28.654Z,5.90
2022-11-26T16:28:56.013Z,6.47
2022-11-26T16:31:23.734Z,5.50
2022-11-26T16:33:51.060Z,4.80
2022-11-26T16:36:20.272Z,5.65
2022-11-26T16:38:48.198Z,5.55
2022-11-26T16:41:16.461Z,5.38
2022-11-26T16:43:43.956Z,5.50
2022-11-26T16:46:23.698Z,5.60
2022-11-26T16:48:51.356Z,5.68
2022-11-26T16:51:18.606Z,4.40
2022-11-26T16:53:45.898Z,5.15
2022-11-26T16:56:20.767Z,5.95
2022-11-26T17:01:15.616Z,5.78
2022-11-26T17:03:44.011Z,5.50
2022-11-26T17:06:15.301Z,5.95
2022-11-26T17:08:47.937Z,5.75
2022-11-26T17:11:17.158Z,5.75
2022-11-26T17:13:44.445Z,5.43
2022-11-26T17:16:14.294Z,5.80
2022-11-26T17:18:41.969Z,5.53
2022-11-26T17:21:09.261Z,5.55
2022-11-26T17:23:36.626Z,5.90
2022-11-26T17:26:04.249Z,5.40
2022-11-26T17:28:31.656Z,6.70
2022-11-26T17:30:59.517Z,6.65
2022-11-26T17:33:27.002Z,6.70
2022-11-26T17:35:54.376Z,6.90
2022-11-26T17:38:22.523Z,6.68
2022-11-26T17:40:50.008Z,7.20
2022-11-26T17:43:17.359Z,8.57
2022-11-26T17:45:44.833Z,9.35
2022-11-26T17:48:13.533Z,8.68
2022-11-26T17:50:41.107Z,9.82
2022-11-26T17:53:08.471Z,9.63
2022-11-26T17:55:35.901Z,10.98
2022-11-26T17:58:03.283Z,10.18
2022-11-26T18:00:30.852Z,10.88
2022-11-26T18:02:58.752Z,10.70
2022-11-26T18:05:26.296Z,10.50
2022-11-26T18:07:53.769Z,10.30
2022-11-26T18:10:22.484Z,11.93
2022-11-26T18:12:50.660Z,11.75
2022-11-26T18:15:27.725Z,10.48
2022-11-26T18:17:55.965Z,10.73
2022-11-26T18:20:24.649Z,10.52
2022-11-26T18:22:52.910Z,11.55
2022-11-26T18:25:20.161Z,11.20
2022-11-26T18:27:47.481Z,11.98
2022-11-26T18:30:15.036Z,13.35
2022-11-26T18:32:42.381Z,14.05
2022-11-26T18:35:10.071Z,14.25
2022-11-26T18:37:38.662Z,15.60
2022-11-26T18:40:07.608Z,14.63
2022-11-26T18:42:37.437Z,14.98
2022-11-26T18:45:05.765Z,14.80
2022-11-26T18:47:33.346Z,15.30
2022-11-26T18:50:00.664Z,17.50
2022-11-26T18:52:27.954Z,15.13
2022-11-26T18:54:55.263Z,14.70
2022-11-26T18:57:22.508Z,14.27
2022-11-26T18:59:50.683Z,17.92
2022-11-26T19:02:18.112Z,15.00
2022-11-26T19:04:45.704Z,14.88
2022-11-26T19:07:14.283Z,15.27
2022-11-26T19:09:42.666Z,14.27
2022-11-26T19:12:10.753Z,14.35
2022-11-26T19:14:41.324Z,14.88
2022-11-26T19:17:08.731Z,14.40
2022-11-26T19:19:36.157Z,12.88
2022-11-26T19:22:03.726Z,13.65
2022-11-26T19:24:31.095Z,13.82
2022-11-26T19:26:58.502Z,13.38
2022-11-26T19:29:25.943Z,12.55
2022-11-26T19:31:53.509Z,13.65
2022-11-26T19:34:20.788Z,13.05
2022-11-26T19:36:49.226Z,13.82
2022-11-26T19:39:19.654Z,13.50
2022-11-26T19:41:47.071Z,14.80
2022-11-26T19:44:14.412Z,14.65
2022-11-26T19:46:41.925Z,14.70
2022-11-26T19:49:11.863Z,13.63
2022-11-26T19:51:39.669Z,15.20
2022-11-26T19:54:07.358Z,15.65
2022-11-26T19:56:35.585Z,14.25
2022-11-26T19:59:02.894Z,14.65
2022-11-26T20:01:31.311Z,14.07
2022-11-26T20:04:03.069Z,14.13
2022-11-26T20:06:31.152Z,13.90
2022-11-26T20:08:59.219Z,13.40
2022-11-26T20:11:27.209Z,13.88
2022-11-26T20:13:54.733Z,12.93
2022-11-26T20:16:23.474Z,13.57
2022-11-26T20:18:51.257Z,12.52
2022-11-26T20:21:22.725Z,12.82
2022-11-26T20:23:50.782Z,12.65
2022-11-26T20:26:19.475Z,13.05
2022-11-26T20:28:48.688Z,13.98
2022-11-26T20:31:20.499Z,11.75
2022-11-26T20:33:50.678Z,12.02
2022-11-26T20:36:20.517Z,11.73
2022-11-26T20:38:48.132Z,11.18
2022-11-26T20:41:17.286Z,10.60
2022-11-26T20:43:44.936Z,11.40
2022-11-26T20:46:13.253Z,11.05
2022-11-26T20:48:41.747Z,10.73
2022-11-26T20:51:10.297Z,10.80
2022-11-26T20:53:38.270Z,10.60
2022-11-26T20:56:06.342Z,10.65
2022-11-26T20:58:36.078Z,10.85
2022-11-26T21:01:03.645Z,10.55
2022-11-26T21:03:31.810Z,10.43
2022-11-26T21:06:02.765Z,11.10
2022-11-26T21:08:30.130Z,10.68
2022-11-26T21:10:57.425Z,10.68
2022-11-26T21:13:24.849Z,10.27
2022-11-26T21:15:52.114Z,11.23
2022-11-26T21:18:20.438Z,10.65
2022-11-26T21:20:47.803Z,11.20
2022-11-26T21:23:15.176Z,10.70
2022-11-26T21:25:43.600Z,10.70
2022-11-26T21:28:13.650Z,12.20
2022-11-26T21:30:41.563Z,11.27
2022-11-26T21:33:09.637Z,10.27
2022-11-26T21:35:38.080Z,11.50
2022-11-26T21:38:06.395Z,10.85
2022-11-26T21:40:34.086Z,10.77
2022-11-26T21:43:01.390Z,10.75
2022-11-26T21:45:29.261Z,10.20
2022-11-26T21:47:56.625Z,10.93
2022-11-26T21:50:24.564Z,10.57
2022-11-26T21:52:51.871Z,10.52
2022-11-26T21:55:19.479Z,10.00
2022-11-26T21:57:46.913Z,9.85
2022-11-26T22:00:14.622Z,9.55
2022-11-26T22:02:42.037Z,9.75
2022-11-26T22:05:09.534Z,10.15
2022-11-26T22:07:36.987Z,9.30
2022-11-26T22:10:04.715Z,9.45
2022-11-26T22:12:31.929Z,10.35
2022-11-26T22:14:59.271Z,10.18
2022-11-26T22:17:26.666Z,8.90
2022-11-26T22:19:54.003Z,9.60
2022-11-26T22:22:21.372Z,9.77
2022-11-26T22:24:49.426Z,9.45
2022-11-26T22:27:19.131Z,9.23
2022-11-26T22:29:46.495Z,10.27
2022-11-26T22:32:13.805Z,9.88
2022-11-26T22:34:41.128Z,9.50
2022-11-26T22:37:08.369Z,10.32
2022-11-26T22:39:35.704Z,9.65
2022-11-26T22:42:03.509Z,10.63
2022-11-26T22:44:31.176Z,9.55
2022-11-26T22:46:58.503Z,10.27
2022-11-26T22:49:25.800Z,10.10
2022-11-26T22:51:53.128Z,10.20
2022-11-26T22:54:21.484Z,10.77
2022-11-26T22:56:48.718Z,10.45
2022-11-26T22:59:16.072Z,9.63
2022-11-26T23:01:43.309Z,11.23
2022-11-26T23:04:11.243Z,10.55
2022-11-26T23:06:39.081Z,9.30
2022-11-26T23:09:07.693Z,9.48
2022-11-26T23:11:36.586Z,9.25
2022-11-26T23:14:07.063Z,9.40
2022-11-26T23:16:35.164Z,11.63
2022-11-26T23:19:02.917Z,9.10
2022-11-26T23:21:31.988Z,8.02
2022-11-26T23:23:59.462Z,8.02
2022-11-26T23:26:28.115Z,8.57
2022-11-26T23:28:58.790Z,8.18
2022-11-26T23:31:30.299Z,8.82
2022-11-26T23:33:58.015Z,9.00
2022-11-26T23:36:26.252Z,8.85
2022-11-26T23:38:53.682Z,9.57
2022-11-26T23:41:21.038Z,9.27
2022-11-26T23:43:48.389Z,9.10
2022-11-26T23:46:17.007Z,8.38
2022-11-26T23:48:44.741Z,8.27
2022-11-26T23:51:13.294Z,8.80
2022-11-26T23:53:41.619Z,7.85
2022-11-26T23:56:12.593Z,7.43
2022-11-26T23:58:39.885Z,7.55
